Terminal Aerodrome Forecast
Issued by NWS

Home | Current Version | Previous Version | Text Only | Print | Product List | Glossary On
Versions: 1 2 3 4 5 6 7 8 9 10 11 12 13 14 15 16 17
000
FTUS45 KRIW 202328
TAFJAC
TAF
KJAC 202328Z 2100/2124 20014G20KT 5SM -SN SCT012 OVC022
      TEMPO 2100/2104 OVC010
     FM210900 20019G29KT 4SM -RASN OVC010
     FM211400 20026G36KT 4SM -RASN OVC008
     FM212000 20016G26KT 5SM -SN OVC020
      AMD LTD TO CLD VIS AND WIND=

USA.gov is the U.S. government's official web portal to all federal, state and local government web resources and services.